20:29
Airports
History
Links
Donate
Help keep this website running!
PayPal
Bitcoin
Information on this page is community maintained and may be outdated or inaccurate and is intended for reference only or PC simulator navigating.
Always use approved charts for navigating.
EDFW
Wuerzburg Schenkenturm
Wuerzburg Schenkenturm (EDFW)
Würzburg, Bayern, Germany (97080)
(U)
Lat/Lng:49° 49' 4.8" N / 9° 53' 49.81" E
49.818001 / 9.89717
Elevation:986'ft 301mMSL
ID / ICAO:EDFW
Runways:1
Longest:(11-29) 643.7m 2,112ft Asphalt
Distance To
Airport ID:
Nearby VORs <50NM
Nearby NDBs
Nearby WeatherUpdated 05-28-17 20:20 GMT
Nearby weather at ETHN, NIEDERSTETTEN located 29.6 nautical miles from EDFW
Altimeter: 30.09
Visibility: 6.2 statute miles
Wind: 4 knots (050°)
Temp: 20°c 68°f
Humidity: 64.1%

METAR: ETHN 282020Z 05004KT 9999 FEW140 BKN280 20/13 Q1019 BLU+

(Powered by phpweather)
Runway 11 / 29
Dimensions:643.7 x 21m 2112' x 69'ft
Surface:Asphalt
Runway 11 [A]Runway 29 [B]
Heading:109°TH 289°TH
Lat:
Lng:
49° 49' 8.36"N
9° 53' 34.65"E
49° 49' 1.24"N
9° 54' 4.97"E
User Notes and Comments
Google Map
Nearby Airports
(C) NIEDERSTETTEN 29.6 NM
ETHN (WX) S 174°
(U) HASSFURT SCHWEINFURT 31.3 NM
EDQT ENE 63°
(U) Rothenburg ob der Tauber 32.8 NM
EDFR SSE 154°
(C) Mainbullau 32.9 NM
EDFU WSW 255°
(U) Neustadt Aisch 34.3 NM
EDQN ESE 117°
(U) Bad Neustadt Saale Grasberg 35.1 NM
EDFD NNE 16°
(U) Ingelfingen Buehlhof 36.0 NM
EDGI SSW 197°
VFR Chart
Flight Planning at SkyVector.com